createdAt,value
2019-02-03T00:00:43.439Z,100877.11
2019-02-03T00:03:10.734Z,100880.66
2019-02-03T00:05:37.891Z,100879.73
2019-02-03T00:08:05.079Z,100877.22
2019-02-03T00:10:32.282Z,100878.89
2019-02-03T00:12:59.518Z,100891.49
2019-02-03T00:15:26.691Z,100900.25
2019-02-03T00:17:53.973Z,100899.84
2019-02-03T00:20:21.716Z,100904.59
2019-02-03T00:22:48.889Z,100902.92
2019-02-03T00:25:16.106Z,100900.69
2019-02-03T00:27:43.271Z,100908.11
2019-02-03T00:30:10.487Z,100905.52
2019-02-03T00:32:37.691Z,100910.73
2019-02-03T00:35:04.967Z,100911.14
2019-02-03T00:37:32.341Z,100913.77
2019-02-03T00:39:59.556Z,100914.61
2019-02-03T00:42:26.816Z,100916.33
2019-02-03T00:44:54.057Z,100916.43
2019-02-03T00:47:21.195Z,100927.35
2019-02-03T00:49:48.434Z,100928.66
2019-02-03T00:52:15.858Z,100936.08
2019-02-03T00:54:43.027Z,100937.83
2019-02-03T00:57:10.244Z,100941.78
2019-02-03T00:59:37.435Z,100934.36
2019-02-03T01:02:04.602Z,100933.52
2019-02-03T01:04:31.815Z,100927.86
2019-02-03T01:06:59.409Z,100934.47
2019-02-03T01:09:26.617Z,100941.40
2019-02-03T01:11:53.774Z,100944.32
2019-02-03T01:14:20.954Z,100944.79
2019-02-03T01:16:48.120Z,100945.69
2019-02-03T01:19:15.324Z,100954.92
2019-02-03T01:21:42.569Z,100946.20
2019-02-03T01:24:10.028Z,100943.07
2019-02-03T01:26:37.257Z,100941.81
2019-02-03T01:29:04.439Z,100935.30
2019-02-03T01:31:31.685Z,100946.20
2019-02-03T01:33:58.844Z,100944.89
2019-02-03T01:36:26.054Z,100939.64
2019-02-03T01:38:53.365Z,100948.77
2019-02-03T01:41:20.521Z,100942.63
2019-02-03T01:43:47.735Z,100935.28
2019-02-03T01:46:14.906Z,100935.26
2019-02-03T01:48:42.139Z,100941.83
2019-02-03T01:51:09.334Z,100944.47
2019-02-03T01:53:36.533Z,100945.40
2019-02-03T01:56:04.181Z,100947.58
2019-02-03T01:58:31.349Z,100944.06
2019-02-03T02:00:58.685Z,100949.72
2019-02-03T02:03:26.354Z,100960.66
2019-02-03T02:05:53.507Z,100980.25
2019-02-03T02:08:20.731Z,100993.33
2019-02-03T02:10:47.939Z,100999.46
2019-02-03T02:13:15.513Z,101010.82
2019-02-03T02:15:42.697Z,101012.53
2019-02-03T02:18:09.881Z,101007.30
2019-02-03T02:20:37.098Z,101009.94
2019-02-03T02:23:04.277Z,101013.91
2019-02-03T02:25:31.483Z,101013.48
2019-02-03T02:27:58.659Z,101012.20
2019-02-03T02:30:25.955Z,101020.07
2019-02-03T02:32:53.239Z,101024.78
2019-02-03T02:35:20.447Z,101034.39
2019-02-03T02:37:47.781Z,101037.88
2019-02-03T02:40:20.075Z,101032.23
2019-02-03T02:42:47.308Z,101034.80
2019-02-03T02:45:14.935Z,101034.80
2019-02-03T02:47:42.139Z,101033.48
2019-02-03T02:50:20.899Z,101038.73
2019-02-03T02:52:48.103Z,101048.34
2019-02-03T02:55:15.293Z,101052.66
2019-02-03T02:57:42.475Z,101060.15
2019-02-03T03:00:12.595Z,101061.92
2019-02-03T03:02:39.843Z,101058.89
2019-02-03T03:05:07.625Z,101082.41
2019-02-03T03:07:34.807Z,101079.41
2019-02-03T03:10:02.115Z,101074.65
2019-02-03T03:12:29.322Z,101083.27
2019-02-03T03:14:56.847Z,101078.05
2019-02-03T03:17:24.006Z,101075.04
2019-02-03T03:19:51.180Z,101074.63
2019-02-03T03:22:18.382Z,101078.16
2019-02-03T03:24:45.625Z,101080.39
2019-02-03T03:27:12.823Z,101081.70
2019-02-03T03:29:40.387Z,101098.61
2019-02-03T03:32:07.613Z,101104.27
2019-02-03T03:34:34.795Z,101113.92
2019-02-03T03:37:02.006Z,101116.15
2019-02-03T03:39:29.207Z,101119.18
2019-02-03T03:41:56.465Z,101125.30
2019-02-03T03:44:23.665Z,101129.66
2019-02-03T03:46:51.170Z,101124.44
2019-02-03T03:49:18.361Z,101135.27
2019-02-03T03:51:45.571Z,101134.87
2019-02-03T03:54:12.753Z,101130.98
2019-02-03T03:56:39.966Z,101129.31
2019-02-03T03:59:07.131Z,101127.58
2019-02-03T04:01:34.325Z,101131.52
2019-02-03T04:04:01.619Z,101135.56
2019-02-03T04:06:28.771Z,101142.91
2019-02-03T04:08:55.954Z,101139.42
2019-02-03T04:11:23.120Z,101149.94
2019-02-03T04:13:50.332Z,101152.97
2019-02-03T04:16:17.506Z,101148.19
2019-02-03T04:18:45.207Z,101149.56
2019-02-03T04:21:12.401Z,101139.92
2019-02-03T04:23:39.545Z,101139.88
2019-02-03T04:26:06.727Z,101130.20
2019-02-03T04:28:33.918Z,101134.09
2019-02-03T04:31:01.133Z,101137.57
2019-02-03T04:33:28.360Z,101139.33
2019-02-03T04:35:55.988Z,101144.50
2019-02-03T04:38:23.206Z,101148.77
2019-02-03T04:40:50.620Z,101147.41
2019-02-03T04:43:17.792Z,101157.41
2019-02-03T04:45:45.014Z,101151.23
2019-02-03T04:48:12.324Z,101158.61
2019-02-03T04:50:39.503Z,101161.16
2019-02-03T04:53:06.851Z,101174.67
2019-02-03T04:55:34.057Z,101175.83
2019-02-03T04:58:01.230Z,101189.35
2019-02-03T05:00:28.417Z,101196.34
2019-02-03T05:02:55.641Z,101198.09
2019-02-03T05:05:22.817Z,101204.64
2019-02-03T05:07:50.063Z,101198.52
2019-02-03T05:10:17.842Z,101200.22
2019-02-03T05:12:45.033Z,101195.86
2019-02-03T05:15:14.742Z,101192.36
2019-02-03T05:17:42.099Z,101195.47
2019-02-03T05:20:10.467Z,101205.03
2019-02-03T05:22:37.664Z,101200.61
2019-02-03T05:25:05.041Z,101204.51
2019-02-03T05:27:32.383Z,101205.44
2019-02-03T05:29:59.577Z,101212.95
2019-02-03T05:32:26.740Z,101220.36
2019-02-03T05:34:53.962Z,101212.00
2019-02-03T05:37:21.135Z,101202.00
2019-02-03T05:39:48.429Z,101208.55
2019-02-03T05:42:15.657Z,101214.62
2019-02-03T05:44:42.838Z,101232.59
2019-02-03T05:47:09.990Z,101237.80
2019-02-03T05:49:37.202Z,101253.53
2019-02-03T05:52:04.418Z,101269.70
2019-02-03T05:54:31.671Z,101278.47
2019-02-03T05:56:59.350Z,101279.86
2019-02-03T05:59:26.518Z,101296.88
2019-02-03T06:01:53.716Z,101312.54
2019-02-03T06:04:20.888Z,101327.41
2019-02-03T06:06:48.128Z,101344.89
2019-02-03T06:09:15.324Z,101355.78
2019-02-03T06:11:42.544Z,101357.11
2019-02-03T06:14:09.706Z,101351.01
2019-02-03T06:16:36.941Z,101349.70
2019-02-03T06:19:04.093Z,101348.80
2019-02-03T06:21:31.382Z,101335.70
2019-02-03T06:23:58.554Z,101320.38
2019-02-03T06:26:25.766Z,101316.88
2019-02-03T06:28:53.085Z,101312.04
2019-02-03T06:31:20.250Z,101323.81
2019-02-03T06:33:51.602Z,101332.06
2019-02-03T06:36:19.215Z,101340.34
2019-02-03T06:38:46.809Z,101353.05
2019-02-03T06:41:14.083Z,101359.66
2019-02-03T06:43:41.262Z,101357.91
2019-02-03T06:46:28.009Z,101362.69
2019-02-03T06:48:58.084Z,101368.35
2019-02-03T06:51:25.290Z,101374.94
2019-02-03T06:53:52.504Z,101381.05
2019-02-03T06:56:20.104Z,101386.27
2019-02-03T06:58:47.297Z,101386.67
2019-02-03T07:01:14.470Z,101382.39
2019-02-03T07:03:41.656Z,101387.20
2019-02-03T07:06:08.856Z,101387.62
2019-02-03T07:08:36.066Z,101392.43
2019-02-03T07:11:03.259Z,101400.23
2019-02-03T07:13:30.551Z,101403.74
2019-02-03T07:15:57.737Z,101409.41
2019-02-03T07:18:24.946Z,101409.41
2019-02-03T07:20:52.132Z,101404.64
2019-02-03T07:23:19.333Z,101407.26
2019-02-03T07:25:46.516Z,101410.30
2019-02-03T07:28:13.714Z,101414.71
2019-02-03T07:30:40.905Z,101428.30
2019-02-03T07:33:08.068Z,101433.50
2019-02-03T07:35:35.274Z,101425.59
2019-02-03T07:38:02.503Z,101424.70
2019-02-03T07:40:29.718Z,101422.91
2019-02-03T07:42:56.970Z,101425.94
2019-02-03T07:45:24.542Z,101428.16
2019-02-03T07:47:51.850Z,101437.80
2019-02-03T07:50:19.051Z,101439.55
2019-02-03T07:52:46.272Z,101441.73
2019-02-03T07:55:13.510Z,101441.66
2019-02-03T07:57:40.715Z,101443.36
2019-02-03T08:00:08.367Z,101447.78
2019-02-03T08:02:35.916Z,101461.39
2019-02-03T08:05:03.127Z,101461.81
2019-02-03T08:07:30.349Z,101466.12
2019-02-03T08:09:57.538Z,101472.27
2019-02-03T08:12:24.780Z,101474.41
2019-02-03T08:14:52.070Z,101486.19
2019-02-03T08:17:19.253Z,101493.64
2019-02-03T08:19:46.832Z,101501.53
2019-02-03T08:22:14.034Z,101505.89
2019-02-03T08:24:41.250Z,101512.02
2019-02-03T08:27:08.439Z,101513.30
2019-02-03T08:29:35.651Z,101522.42
2019-02-03T08:32:02.850Z,101528.98
2019-02-03T08:34:30.072Z,101535.03
2019-02-03T08:36:57.570Z,101540.64
2019-02-03T08:39:24.742Z,101545.44
2019-02-03T08:41:52.007Z,101549.31
2019-02-03T08:44:19.191Z,101543.62
2019-02-03T08:46:46.442Z,101549.70
2019-02-03T08:49:13.934Z,101550.52
2019-02-03T08:51:41.133Z,101554.90
2019-02-03T08:54:08.338Z,101556.66
2019-02-03T08:56:35.495Z,101557.17
2019-02-03T08:59:02.714Z,101570.27
2019-02-03T09:01:29.867Z,101575.03
2019-02-03T09:03:57.055Z,101576.72
2019-02-03T09:06:24.244Z,101578.51
2019-02-03T09:08:51.742Z,101580.61
2019-02-03T09:11:18.901Z,101581.46
2019-02-03T09:13:46.133Z,101578.41
2019-02-03T09:16:13.314Z,101583.56
2019-02-03T09:18:40.510Z,101589.63
2019-02-03T09:21:07.705Z,101584.77
2019-02-03T09:23:34.874Z,101586.55
2019-02-03T09:26:02.370Z,101589.16
2019-02-03T09:28:29.546Z,101597.49
2019-02-03T09:30:56.749Z,101597.50
2019-02-03T09:33:23.913Z,101595.80
2019-02-03T09:35:51.101Z,101605.02
2019-02-03T09:38:18.351Z,101596.70
2019-02-03T09:40:45.524Z,101595.78
2019-02-03T09:43:12.906Z,101603.61
2019-02-03T09:45:40.087Z,101607.95
2019-02-03T09:48:07.314Z,101608.33
2019-02-03T09:50:34.472Z,101607.01
2019-02-03T09:53:01.737Z,101606.53
2019-02-03T09:55:28.911Z,101612.16
2019-02-03T09:57:56.125Z,101612.16
2019-02-03T10:00:25.684Z,101617.82
2019-02-03T10:02:53.952Z,101623.99
2019-02-03T10:05:21.135Z,101621.34
2019-02-03T10:07:48.342Z,101627.48
2019-02-03T10:10:21.882Z,101631.36
2019-02-03T10:12:49.050Z,101637.02
2019-02-03T10:15:16.570Z,101634.33
2019-02-03T10:17:43.760Z,101640.84
2019-02-03T10:20:11.405Z,101639.91
2019-02-03T10:22:38.554Z,101643.84
2019-02-03T10:25:08.971Z,101651.28
2019-02-03T10:27:36.205Z,101648.16
2019-02-03T10:30:04.298Z,101655.52
2019-02-03T10:32:31.469Z,101659.46
2019-02-03T10:34:58.638Z,101653.71
2019-02-03T10:37:25.950Z,101663.75
2019-02-03T10:39:53.178Z,101664.66
2019-02-03T10:42:20.387Z,101666.41
2019-02-03T10:44:47.577Z,101678.71
2019-02-03T10:47:14.959Z,101673.89
2019-02-03T10:49:42.175Z,101680.86
2019-02-03T10:52:09.434Z,101678.27
2019-02-03T10:54:36.604Z,101693.17
2019-02-03T10:57:03.797Z,101699.75
2019-02-03T10:59:31.018Z,101696.66
2019-02-03T11:01:58.186Z,101700.55
2019-02-03T11:04:25.884Z,101698.81
2019-02-03T11:06:53.024Z,101710.62
2019-02-03T11:09:20.197Z,101700.91
2019-02-03T11:11:47.410Z,101710.97
2019-02-03T11:14:14.651Z,101714.06
2019-02-03T11:16:41.846Z,101724.55
2019-02-03T11:19:09.163Z,101726.30
2019-02-03T11:21:36.418Z,101724.94
2019-02-03T11:24:04.045Z,101728.02
2019-02-03T11:26:31.239Z,101727.98
2019-02-03T11:28:58.428Z,101725.78
2019-02-03T11:31:25.672Z,101727.50
2019-02-03T11:33:52.831Z,101735.40
2019-02-03T11:36:20.042Z,101739.39
2019-02-03T11:38:47.260Z,101737.67
2019-02-03T11:41:14.480Z,101734.16
2019-02-03T11:43:43.418Z,101739.87
2019-02-03T11:46:10.832Z,101729.03
2019-02-03T11:48:38.063Z,101731.67
2019-02-03T11:51:05.248Z,101736.90
2019-02-03T11:53:32.425Z,101732.97
2019-02-03T11:55:59.652Z,101737.80
2019-02-03T11:58:27.033Z,101746.13
2019-02-03T12:00:54.981Z,101750.06
2019-02-03T12:03:22.121Z,101746.13
2019-02-03T12:05:49.298Z,101744.38
2019-02-03T12:08:16.503Z,101746.09
2019-02-03T12:10:43.685Z,101751.69
2019-02-03T12:13:10.857Z,101750.36
2019-02-03T12:15:38.065Z,101750.77
2019-02-03T12:18:05.482Z,101758.64
2019-02-03T12:20:32.675Z,101758.64
2019-02-03T12:22:59.891Z,101755.18
2019-02-03T12:25:28.494Z,101755.56
2019-02-03T12:27:55.655Z,101763.42
2019-02-03T12:30:28.155Z,101767.77
2019-02-03T12:32:55.312Z,101773.88
2019-02-03T12:35:22.497Z,101770.39
2019-02-03T12:37:49.714Z,101772.56
2019-02-03T12:40:19.121Z,101779.99
2019-02-03T12:42:46.326Z,101780.01
2019-02-03T12:45:14.118Z,101778.69
2019-02-03T12:47:41.292Z,101786.17
2019-02-03T12:50:10.576Z,101786.20
2019-02-03T12:52:37.783Z,101781.84
2019-02-03T12:55:06.714Z,101793.58
2019-02-03T12:57:33.939Z,101793.02
2019-02-03T13:00:01.592Z,101796.86
2019-02-03T13:02:28.760Z,101795.50
2019-02-03T13:04:55.971Z,101794.52
2019-02-03T13:07:23.167Z,101799.30
2019-02-03T13:09:50.382Z,101795.83
2019-02-03T13:12:24.665Z,101801.09
2019-02-03T13:14:46.645Z,101810.36
2019-02-03T13:17:14.075Z,101808.16
2019-02-03T13:19:41.347Z,101812.92
2019-02-03T13:22:08.538Z,101818.06
2019-02-03T13:24:35.773Z,101815.38
2019-02-03T13:27:03.047Z,101820.17
2019-02-03T13:29:30.252Z,101818.52
2019-02-03T13:32:10.116Z,101819.36
2019-02-03T13:34:26.920Z,101825.50
2019-02-03T13:36:54.067Z,101833.67
2019-02-03T13:39:21.318Z,101833.94
2019-02-03T13:41:48.519Z,101839.05
2019-02-03T13:44:15.688Z,101838.63
2019-02-03T13:46:42.907Z,101844.06
2019-02-03T13:49:10.122Z,101843.75
2019-02-03T13:51:37.334Z,101850.80
2019-02-03T13:54:05.442Z,101854.36
2019-02-03T13:56:32.633Z,101864.83
2019-02-03T13:58:59.806Z,101862.23
2019-02-03T14:01:26.983Z,101861.01
2019-02-03T14:03:54.269Z,101867.17
2019-02-03T14:06:21.443Z,101872.45
2019-02-03T14:08:48.582Z,101870.32
2019-02-03T14:11:15.750Z,101879.53
2019-02-03T14:13:42.994Z,101880.02
2019-02-03T14:16:10.170Z,101885.19
2019-02-03T14:18:37.739Z,101892.16
2019-02-03T14:21:04.950Z,101894.67
2019-02-03T14:23:32.142Z,101898.13
2019-02-03T14:25:59.327Z,101895.05
2019-02-03T14:28:27.103Z,101896.70
2019-02-03T14:30:54.309Z,101897.56
2019-02-03T14:33:21.476Z,101901.92
2019-02-03T14:35:48.724Z,101892.29
2019-02-03T14:38:15.875Z,101900.61
2019-02-03T14:40:43.108Z,101904.14
2019-02-03T14:43:10.428Z,101901.91
2019-02-03T14:45:37.611Z,101903.63
2019-02-03T14:48:05.706Z,101897.02
2019-02-03T14:50:33.402Z,101901.89
2019-02-03T14:53:01.668Z,101902.22
2019-02-03T14:55:31.230Z,101903.36
2019-02-03T14:57:58.439Z,101911.91
2019-02-03T15:00:33.519Z,101914.41
2019-02-03T15:03:02.850Z,101914.79
2019-02-03T15:05:30.077Z,101919.09
2019-02-03T15:07:57.247Z,101919.89
2019-02-03T15:10:24.577Z,101924.09
2019-02-03T15:12:51.792Z,101924.39
2019-02-03T15:15:20.110Z,101929.94
2019-02-03T15:17:47.303Z,101934.28
2019-02-03T15:20:16.820Z,101935.26
2019-02-03T15:22:43.958Z,101939.03
2019-02-03T15:25:11.171Z,101934.71
2019-02-03T15:27:38.348Z,101935.30
2019-02-03T15:30:18.852Z,101938.48
2019-02-03T15:32:36.926Z,101939.08
2019-02-03T15:35:05.206Z,101939.53
2019-02-03T15:37:32.433Z,101945.56
2019-02-03T15:39:59.746Z,101948.72
2019-02-03T15:42:26.948Z,101944.94
2019-02-03T15:44:54.168Z,101948.20
2019-02-03T15:47:21.389Z,101955.78
2019-02-03T15:49:48.859Z,101962.37
2019-02-03T15:52:16.030Z,101964.63
2019-02-03T15:54:43.215Z,101967.70
2019-02-03T15:57:10.390Z,101976.95
2019-02-03T15:59:37.723Z,101974.85
2019-02-03T16:02:04.890Z,101977.99
2019-02-03T16:04:32.074Z,101988.55
2019-02-03T16:06:59.592Z,101987.28
2019-02-03T16:09:26.845Z,101981.20
2019-02-03T16:11:54.046Z,101983.84
2019-02-03T16:14:21.199Z,101984.34
2019-02-03T16:16:48.439Z,101988.73
2019-02-03T16:19:15.642Z,101989.69
2019-02-03T16:21:42.979Z,101998.48
2019-02-03T16:24:10.150Z,101997.61
2019-02-03T16:26:37.341Z,101998.94
2019-02-03T16:29:04.946Z,102000.31
2019-02-03T16:31:32.162Z,101997.27
2019-02-03T16:33:59.366Z,102007.80
2019-02-03T16:36:26.846Z,102009.59
2019-02-03T16:38:54.111Z,102006.57
2019-02-03T16:41:21.377Z,102007.05
2019-02-03T16:43:49.351Z,102004.02
2019-02-03T16:46:16.825Z,102012.33
2019-02-03T16:48:43.982Z,102010.66
2019-02-03T16:51:11.256Z,102015.91
2019-02-03T16:53:38.844Z,102015.07
2019-02-03T16:56:06.059Z,102019.86
2019-02-03T16:58:33.227Z,102026.89
2019-02-03T17:01:00.416Z,102031.27
2019-02-03T17:03:27.643Z,102031.30
2019-02-03T17:05:54.824Z,102037.85
2019-02-03T17:08:22.082Z,102041.79
2019-02-03T17:10:49.331Z,102039.19
2019-02-03T17:13:16.685Z,102041.36
2019-02-03T17:15:52.793Z,102047.04
2019-02-03T17:18:20.006Z,102048.80
2019-02-03T17:20:47.153Z,102046.16
2019-02-03T17:23:14.376Z,102056.69
2019-02-03T17:25:47.418Z,102047.92
2019-02-03T17:28:14.944Z,102048.78
2019-02-03T17:30:42.115Z,102053.20
2019-02-03T17:33:09.282Z,102059.31
2019-02-03T17:35:36.503Z,102054.52
2019-02-03T17:38:03.709Z,102062.80
2019-02-03T17:40:30.939Z,102058.44
2019-02-03T17:42:58.097Z,102064.58
2019-02-03T17:45:25.585Z,102069.83
2019-02-03T17:47:52.764Z,102070.30
2019-02-03T17:50:20.787Z,102072.88
2019-02-03T17:52:48.003Z,102079.02
2019-02-03T17:55:16.282Z,102084.73
2019-02-03T17:57:43.469Z,102084.70
2019-02-03T18:00:18.779Z,102079.48
2019-02-03T18:02:46.276Z,102085.59
2019-02-03T18:05:13.913Z,102087.37
2019-02-03T18:07:41.066Z,102092.19
2019-02-03T18:10:10.557Z,102093.04
2019-02-03T18:12:37.722Z,102100.02
2019-02-03T18:15:05.875Z,102097.86
2019-02-03T18:17:33.086Z,102103.12
2019-02-03T18:20:00.333Z,102108.37
2019-02-03T18:22:27.702Z,102105.74
2019-02-03T18:24:54.910Z,102106.62
2019-02-03T18:27:22.161Z,102104.86
2019-02-03T18:29:49.339Z,102110.53
2019-02-03T18:32:16.858Z,102113.16
2019-02-03T18:34:44.031Z,102111.41
2019-02-03T18:37:11.247Z,102114.46
2019-02-03T18:39:38.589Z,102114.47
2019-02-03T18:42:05.752Z,102109.25
2019-02-03T18:44:36.012Z,102112.77
2019-02-03T18:47:02.028Z,102114.05
2019-02-03T18:49:29.179Z,102118.02
2019-02-03T18:51:56.538Z,102113.62
2019-02-03T18:54:23.686Z,102119.76
2019-02-03T18:56:50.844Z,102122.80
2019-02-03T18:59:18.062Z,102127.63
2019-02-03T19:01:45.234Z,102123.69
2019-02-03T19:04:12.743Z,102130.69
2019-02-03T19:06:39.891Z,102131.99
2019-02-03T19:09:07.528Z,102142.06
2019-02-03T19:11:34.706Z,102139.02
2019-02-03T19:14:01.910Z,102133.77
2019-02-03T19:16:29.124Z,102137.28
2019-02-03T19:18:56.339Z,102133.77
2019-02-03T19:21:23.953Z,102139.91
2019-02-03T19:23:51.131Z,102139.48
2019-02-03T19:26:18.431Z,102141.22
2019-02-03T19:28:45.615Z,102141.22
2019-02-03T19:31:12.754Z,102151.72
2019-02-03T19:33:39.942Z,102147.78
2019-02-03T19:36:07.140Z,102147.78
2019-02-03T19:38:34.555Z,102148.20
2019-02-03T19:41:01.795Z,102160.44
2019-02-03T19:43:28.978Z,102166.12
2019-02-03T19:45:56.163Z,102165.27
2019-02-03T19:48:23.378Z,102167.04
2019-02-03T19:50:50.541Z,102166.58
2019-02-03T19:53:17.754Z,102174.02
2019-02-03T19:55:45.047Z,102172.29
2019-02-03T19:58:12.382Z,102177.53
2019-02-03T20:00:41.413Z,102180.58
2019-02-03T20:03:08.601Z,102185.41
2019-02-03T20:05:35.883Z,102186.72
2019-02-03T20:08:03.111Z,102197.64
2019-02-03T20:10:30.728Z,102195.48
2019-02-03T20:12:57.908Z,102197.65
2019-02-03T20:15:25.107Z,102202.05
2019-02-03T20:17:52.368Z,102205.52
2019-02-03T20:20:21.778Z,102202.04
2019-02-03T20:22:48.981Z,102210.37
2019-02-03T20:25:18.811Z,102207.74
2019-02-03T20:27:45.223Z,102208.63
2019-02-03T20:30:15.347Z,102210.82
2019-02-03T20:32:42.581Z,102216.06
2019-02-03T20:35:10.850Z,102218.28
2019-02-03T20:37:38.115Z,102222.63
2019-02-03T20:40:05.851Z,102225.25
2019-02-03T20:42:33.495Z,102234.00
2019-02-03T20:45:00.725Z,102234.02
2019-02-03T20:47:27.909Z,102233.14
2019-02-03T20:49:55.088Z,102234.44
2019-02-03T20:52:22.296Z,102235.31
2019-02-03T20:54:49.495Z,102237.08
2019-02-03T20:57:16.686Z,102235.78
2019-02-03T20:59:43.882Z,102234.00
2019-02-03T21:02:11.084Z,102234.45
2019-02-03T21:04:38.351Z,102241.89
2019-02-03T21:07:05.539Z,102242.33
2019-02-03T21:09:32.743Z,102244.49
2019-02-03T21:11:59.950Z,102250.19
2019-02-03T21:14:27.163Z,102256.30
2019-02-03T21:16:54.314Z,102259.81
2019-02-03T21:19:21.545Z,102260.23
2019-02-03T21:21:48.729Z,102260.26
2019-02-03T21:24:15.951Z,102265.04
2019-02-03T21:26:43.171Z,102247.58
2019-02-03T21:29:10.527Z,102260.68
2019-02-03T21:31:37.711Z,102264.19
2019-02-03T21:34:04.936Z,102277.29
2019-02-03T21:36:32.162Z,102280.34
2019-02-03T21:38:59.398Z,102283.41
2019-02-03T21:41:26.635Z,102286.88
2019-02-03T21:43:53.794Z,102291.70
2019-02-03T21:46:21.014Z,102290.39
2019-02-03T21:48:48.245Z,102293.42
2019-02-03T21:51:15.898Z,102293.42
2019-02-03T21:53:43.074Z,102296.46
2019-02-03T21:56:10.263Z,102289.91
2019-02-03T21:58:37.468Z,102294.73
2019-02-03T22:01:04.643Z,102290.36
2019-02-03T22:03:31.815Z,102285.97
2019-02-03T22:05:59.017Z,102285.56
2019-02-03T22:08:26.627Z,102281.59
2019-02-03T22:10:53.843Z,102288.16
2019-02-03T22:13:21.030Z,102279.85
2019-02-03T22:15:55.450Z,102285.53
2019-02-03T22:18:17.308Z,102285.13
2019-02-03T22:20:44.549Z,102288.16
2019-02-03T22:23:11.783Z,102292.52
2019-02-03T22:25:39.014Z,102298.20
2019-02-03T22:28:06.183Z,102296.02
2019-02-03T22:30:42.275Z,102297.78
2019-02-03T22:33:09.541Z,102296.89
2019-02-03T22:35:36.977Z,102303.89
2019-02-03T22:38:04.996Z,102304.76
2019-02-03T22:40:32.251Z,102305.18
2019-02-03T22:42:59.442Z,102307.81
2019-02-03T22:45:26.633Z,102311.73
2019-02-03T22:47:53.845Z,102306.94
2019-02-03T22:50:23.122Z,102305.19
2019-02-03T22:52:50.302Z,102306.95
2019-02-03T22:55:17.814Z,102316.54
2019-02-03T22:57:45.000Z,102313.05
2019-02-03T23:00:23.057Z,102320.91
2019-02-03T23:02:50.507Z,102320.91
2019-02-03T23:05:17.668Z,102327.47
2019-02-03T23:07:45.086Z,102320.45
2019-02-03T23:10:12.321Z,102320.45
2019-02-03T23:12:39.521Z,102330.95
2019-02-03T23:15:06.774Z,102323.53
2019-02-03T23:17:33.972Z,102329.20
2019-02-03T23:20:01.166Z,102328.77
2019-02-03T23:22:28.391Z,102330.97
2019-02-03T23:24:55.978Z,102330.97
2019-02-03T23:27:23.186Z,102320.50
2019-02-03T23:29:50.344Z,102324.84
2019-02-03T23:32:17.554Z,102333.13
2019-02-03T23:34:44.728Z,102332.72
2019-02-03T23:37:11.924Z,102335.34
2019-02-03T23:39:39.136Z,102333.13
2019-02-03T23:42:06.754Z,102332.70
2019-02-03T23:44:33.973Z,102337.09
2019-02-03T23:47:01.147Z,102340.59
2019-02-03T23:49:28.367Z,102339.70
2019-02-03T23:51:55.602Z,102340.56
2019-02-03T23:54:22.774Z,102337.53
2019-02-03T23:56:49.954Z,102342.30
2019-02-03T23:59:17.701Z,102344.06
